sensor_id;sensor_type;location;lat;lon;timestamp;P1;durP1;ratioP1;P2;durP2;ratioP2
14945;SDS011;7567;50.916;6.900;2022-12-29T00:00:01;0.83;;;0.83;;
14945;SDS011;7567;50.916;6.900;2022-12-29T00:02:28;1.03;;;0.80;;
14945;SDS011;7567;50.916;6.900;2022-12-29T00:04:54;1.00;;;0.90;;
14945;SDS011;7567;50.916;6.900;2022-12-29T00:07:20;0.73;;;0.73;;
14945;SDS011;7567;50.916;6.900;2022-12-29T00:09:46;1.67;;;0.70;;
14945;SDS011;7567;50.916;6.900;2022-12-29T00:12:12;0.70;;;0.70;;
14945;SDS011;7567;50.916;6.900;2022-12-29T00:14:38;0.70;;;0.70;;
14945;SDS011;7567;50.916;6.900;2022-12-29T00:17:23;1.80;;;0.80;;
14945;SDS011;7567;50.916;6.900;2022-12-29T00:19:49;0.70;;;0.70;;
14945;SDS011;7567;50.916;6.900;2022-12-29T00:22:33;0.60;;;0.60;;
14945;SDS011;7567;50.916;6.900;2022-12-29T00:25:17;0.60;;;0.60;;
14945;SDS011;7567;50.916;6.900;2022-12-29T00:28:02;0.50;;;0.50;;
14945;SDS011;7567;50.916;6.900;2022-12-29T00:30:46;0.90;;;0.50;;
14945;SDS011;7567;50.916;6.900;2022-12-29T00:33:31;0.73;;;0.60;;
14945;SDS011;7567;50.916;6.900;2022-12-29T00:36:27;0.60;;;0.60;;
14945;SDS011;7567;50.916;6.900;2022-12-29T00:39:12;1.27;;;0.60;;
14945;SDS011;7567;50.916;6.900;2022-12-29T00:42:06;0.80;;;0.50;;
14945;SDS011;7567;50.916;6.900;2022-12-29T00:44:52;0.60;;;0.50;;
14945;SDS011;7567;50.916;6.900;2022-12-29T00:47:18;0.67;;;0.60;;
14945;SDS011;7567;50.916;6.900;2022-12-29T00:49:44;2.47;;;0.50;;
14945;SDS011;7567;50.916;6.900;2022-12-29T00:52:11;0.65;;;0.65;;
14945;SDS011;7567;50.916;6.900;2022-12-29T00:54:38;1.23;;;0.50;;
14945;SDS011;7567;50.916;6.900;2022-12-29T00:57:06;0.50;;;0.50;;
14945;SDS011;7567;50.916;6.900;2022-12-29T00:59:34;0.50;;;0.50;;
14945;SDS011;7567;50.916;6.900;2022-12-29T01:02:01;0.50;;;0.50;;
14945;SDS011;7567;50.916;6.900;2022-12-29T01:04:27;0.40;;;0.40;;
14945;SDS011;7567;50.916;6.900;2022-12-29T01:06:53;2.78;;;0.55;;
14945;SDS011;7567;50.916;6.900;2022-12-29T01:09:19;0.68;;;0.43;;
14945;SDS011;7567;50.916;6.900;2022-12-29T01:12:04;0.60;;;0.50;;
14945;SDS011;7567;50.916;6.900;2022-12-29T01:14:31;2.40;;;0.60;;
14945;SDS011;7567;50.916;6.900;2022-12-29T01:16:58;1.77;;;0.40;;
14945;SDS011;7567;50.916;6.900;2022-12-29T01:19:24;0.40;;;0.40;;
14945;SDS011;7567;50.916;6.900;2022-12-29T01:21:50;0.50;;;0.50;;
14945;SDS011;7567;50.916;6.900;2022-12-29T01:24:17;0.47;;;0.47;;
14945;SDS011;7567;50.916;6.900;2022-12-29T01:26:44;0.70;;;0.40;;
14945;SDS011;7567;50.916;6.900;2022-12-29T01:29:10;0.60;;;0.60;;
14945;SDS011;7567;50.916;6.900;2022-12-29T01:31:36;0.70;;;0.70;;
14945;SDS011;7567;50.916;6.900;2022-12-29T01:34:03;0.50;;;0.50;;
14945;SDS011;7567;50.916;6.900;2022-12-29T01:36:29;0.57;;;0.50;;
14945;SDS011;7567;50.916;6.900;2022-12-29T01:38:55;0.93;;;0.67;;
14945;SDS011;7567;50.916;6.900;2022-12-29T01:41:22;0.60;;;0.60;;
14945;SDS011;7567;50.916;6.900;2022-12-29T01:43:55;0.77;;;0.60;;
14945;SDS011;7567;50.916;6.900;2022-12-29T01:46:23;1.60;;;0.70;;
14945;SDS011;7567;50.916;6.900;2022-12-29T01:49:04;0.80;;;0.80;;
14945;SDS011;7567;50.916;6.900;2022-12-29T01:51:43;0.75;;;0.60;;
14945;SDS011;7567;50.916;6.900;2022-12-29T01:54:17;0.60;;;0.60;;
14945;SDS011;7567;50.916;6.900;2022-12-29T01:56:47;0.65;;;0.65;;
14945;SDS011;7567;50.916;6.900;2022-12-29T01:59:17;1.40;;;0.80;;
14945;SDS011;7567;50.916;6.900;2022-12-29T02:01:48;1.55;;;1.00;;
14945;SDS011;7567;50.916;6.900;2022-12-29T02:04:15;2.67;;;0.73;;
14945;SDS011;7567;50.916;6.900;2022-12-29T02:06:41;0.77;;;0.70;;
14945;SDS011;7567;50.916;6.900;2022-12-29T02:09:15;1.20;;;0.80;;
14945;SDS011;7567;50.916;6.900;2022-12-29T02:11:41;1.47;;;0.80;;
14945;SDS011;7567;50.916;6.900;2022-12-29T02:14:10;1.65;;;0.80;;
14945;SDS011;7567;50.916;6.900;2022-12-29T02:19:47;1.60;;;0.93;;
14945;SDS011;7567;50.916;6.900;2022-12-29T02:28:11;1.77;;;1.00;;
14945;SDS011;7567;50.916;6.900;2022-12-29T02:44:12;1.45;;;0.80;;
14945;SDS011;7567;50.916;6.900;2022-12-29T02:49:59;2.22;;;0.70;;
14945;SDS011;7567;50.916;6.900;2022-12-29T02:52:35;0.80;;;0.80;;
14945;SDS011;7567;50.916;6.900;2022-12-29T02:55:05;1.98;;;0.80;;
14945;SDS011;7567;50.916;6.900;2022-12-29T02:57:34;1.70;;;1.00;;
14945;SDS011;7567;50.916;6.900;2022-12-29T03:00:03;2.28;;;1.00;;
14945;SDS011;7567;50.916;6.900;2022-12-29T03:05:08;2.17;;;1.00;;
14945;SDS011;7567;50.916;6.900;2022-12-29T03:08:03;0.60;;;0.60;;
14945;SDS011;7567;50.916;6.900;2022-12-29T03:10:55;1.55;;;0.60;;
14945;SDS011;7567;50.916;6.900;2022-12-29T03:13:32;1.02;;;0.68;;
14945;SDS011;7567;50.916;6.900;2022-12-29T03:16:46;0.82;;;0.60;;
14945;SDS011;7567;50.916;6.900;2022-12-29T03:22:19;0.75;;;0.70;;
14945;SDS011;7567;50.916;6.900;2022-12-29T03:25:01;0.50;;;0.50;;
14945;SDS011;7567;50.916;6.900;2022-12-29T03:27:39;1.23;;;0.70;;
14945;SDS011;7567;50.916;6.900;2022-12-29T03:30:09;0.50;;;0.50;;
14945;SDS011;7567;50.916;6.900;2022-12-29T03:32:44;0.50;;;0.50;;
14945;SDS011;7567;50.916;6.900;2022-12-29T03:35:16;0.68;;;0.68;;
14945;SDS011;7567;50.916;6.900;2022-12-29T03:37:48;1.03;;;0.70;;
14945;SDS011;7567;50.916;6.900;2022-12-29T03:40:21;1.23;;;0.65;;
14945;SDS011;7567;50.916;6.900;2022-12-29T03:42:50;0.90;;;0.80;;
14945;SDS011;7567;50.916;6.900;2022-12-29T03:45:18;1.37;;;0.90;;
14945;SDS011;7567;50.916;6.900;2022-12-29T03:47:44;2.70;;;1.03;;
14945;SDS011;7567;50.916;6.900;2022-12-29T03:50:13;1.13;;;1.03;;
14945;SDS011;7567;50.916;6.900;2022-12-29T03:52:39;1.02;;;0.80;;
14945;SDS011;7567;50.916;6.900;2022-12-29T03:55:05;1.93;;;1.00;;
14945;SDS011;7567;50.916;6.900;2022-12-29T03:57:31;0.93;;;0.70;;
14945;SDS011;7567;50.916;6.900;2022-12-29T03:59:57;1.45;;;0.90;;
14945;SDS011;7567;50.916;6.900;2022-12-29T04:02:23;1.10;;;0.80;;
14945;SDS011;7567;50.916;6.900;2022-12-29T04:04:49;0.70;;;0.70;;
14945;SDS011;7567;50.916;6.900;2022-12-29T04:07:15;0.90;;;0.60;;
14945;SDS011;7567;50.916;6.900;2022-12-29T04:09:41;1.05;;;0.60;;
14945;SDS011;7567;50.916;6.900;2022-12-29T04:12:07;2.33;;;0.80;;
14945;SDS011;7567;50.916;6.900;2022-12-29T04:14:33;0.95;;;0.73;;
14945;SDS011;7567;50.916;6.900;2022-12-29T04:16:59;0.97;;;0.80;;
14945;SDS011;7567;50.916;6.900;2022-12-29T04:19:25;1.00;;;0.87;;
14945;SDS011;7567;50.916;6.900;2022-12-29T04:21:51;1.00;;;0.90;;
14945;SDS011;7567;50.916;6.900;2022-12-29T04:24:17;1.20;;;1.07;;
14945;SDS011;7567;50.916;6.900;2022-12-29T04:26:43;0.80;;;0.70;;
14945;SDS011;7567;50.916;6.900;2022-12-29T04:29:09;1.07;;;1.00;;
14945;SDS011;7567;50.916;6.900;2022-12-29T04:31:36;0.80;;;0.80;;
14945;SDS011;7567;50.916;6.900;2022-12-29T04:34:02;0.75;;;0.60;;
14945;SDS011;7567;50.916;6.900;2022-12-29T04:36:28;1.03;;;0.70;;
14945;SDS011;7567;50.916;6.900;2022-12-29T04:38:54;2.65;;;0.93;;
14945;SDS011;7567;50.916;6.900;2022-12-29T04:41:20;1.53;;;0.90;;
14945;SDS011;7567;50.916;6.900;2022-12-29T04:43:46;1.33;;;0.68;;
14945;SDS011;7567;50.916;6.900;2022-12-29T04:46:12;1.43;;;0.90;;
14945;SDS011;7567;50.916;6.900;2022-12-29T04:48:38;2.40;;;0.90;;
14945;SDS011;7567;50.916;6.900;2022-12-29T04:51:04;1.40;;;0.85;;
14945;SDS011;7567;50.916;6.900;2022-12-29T04:53:30;1.73;;;1.00;;
14945;SDS011;7567;50.916;6.900;2022-12-29T04:55:56;3.15;;;1.33;;
14945;SDS011;7567;50.916;6.900;2022-12-29T04:58:22;1.23;;;0.80;;
14945;SDS011;7567;50.916;6.900;2022-12-29T05:00:48;1.67;;;0.80;;
14945;SDS011;7567;50.916;6.900;2022-12-29T05:03:16;1.00;;;0.80;;
14945;SDS011;7567;50.916;6.900;2022-12-29T05:05:42;2.28;;;0.88;;
14945;SDS011;7567;50.916;6.900;2022-12-29T05:08:08;1.63;;;0.90;;
14945;SDS011;7567;50.916;6.900;2022-12-29T05:10:34;1.13;;;0.90;;
14945;SDS011;7567;50.916;6.900;2022-12-29T05:13:00;2.20;;;1.25;;
14945;SDS011;7567;50.916;6.900;2022-12-29T05:15:26;2.33;;;1.00;;
14945;SDS011;7567;50.916;6.900;2022-12-29T05:17:53;1.35;;;1.00;;
14945;SDS011;7567;50.916;6.900;2022-12-29T05:20:19;1.90;;;1.00;;
14945;SDS011;7567;50.916;6.900;2022-12-29T05:22:45;2.90;;;1.35;;
14945;SDS011;7567;50.916;6.900;2022-12-29T05:25:11;1.57;;;0.80;;
14945;SDS011;7567;50.916;6.900;2022-12-29T05:27:37;1.10;;;0.77;;
14945;SDS011;7567;50.916;6.900;2022-12-29T05:30:03;2.67;;;0.80;;
14945;SDS011;7567;50.916;6.900;2022-12-29T05:32:30;2.72;;;0.85;;
14945;SDS011;7567;50.916;6.900;2022-12-29T05:34:56;3.33;;;0.90;;
14945;SDS011;7567;50.916;6.900;2022-12-29T05:37:22;1.52;;;0.70;;
14945;SDS011;7567;50.916;6.900;2022-12-29T05:39:48;1.27;;;0.80;;
14945;SDS011;7567;50.916;6.900;2022-12-29T05:42:14;3.42;;;1.10;;
14945;SDS011;7567;50.916;6.900;2022-12-29T05:44:40;1.75;;;0.80;;
14945;SDS011;7567;50.916;6.900;2022-12-29T05:47:06;1.70;;;0.98;;
14945;SDS011;7567;50.916;6.900;2022-12-29T05:49:32;1.92;;;0.93;;
14945;SDS011;7567;50.916;6.900;2022-12-29T05:51:58;1.58;;;0.80;;
14945;SDS011;7567;50.916;6.900;2022-12-29T05:54:24;1.35;;;0.80;;
14945;SDS011;7567;50.916;6.900;2022-12-29T05:56:50;1.90;;;0.80;;
14945;SDS011;7567;50.916;6.900;2022-12-29T05:59:16;0.70;;;0.65;;
14945;SDS011;7567;50.916;6.900;2022-12-29T06:01:42;1.80;;;0.70;;
14945;SDS011;7567;50.916;6.900;2022-12-29T06:04:08;1.40;;;0.80;;
14945;SDS011;7567;50.916;6.900;2022-12-29T06:06:34;1.20;;;0.82;;
14945;SDS011;7567;50.916;6.900;2022-12-29T06:09:00;0.98;;;0.70;;
14945;SDS011;7567;50.916;6.900;2022-12-29T06:11:26;1.80;;;0.73;;
14945;SDS011;7567;50.916;6.900;2022-12-29T06:13:52;1.50;;;0.98;;
14945;SDS011;7567;50.916;6.900;2022-12-29T06:16:18;0.90;;;0.70;;
14945;SDS011;7567;50.916;6.900;2022-12-29T06:18:45;0.82;;;0.50;;
14945;SDS011;7567;50.916;6.900;2022-12-29T06:21:11;2.25;;;0.88;;
14945;SDS011;7567;50.916;6.900;2022-12-29T06:23:37;1.73;;;0.70;;
14945;SDS011;7567;50.916;6.900;2022-12-29T06:26:03;1.52;;;0.68;;
14945;SDS011;7567;50.916;6.900;2022-12-29T06:28:29;2.28;;;0.70;;
14945;SDS011;7567;50.916;6.900;2022-12-29T06:30:55;1.58;;;0.80;;
14945;SDS011;7567;50.916;6.900;2022-12-29T06:33:22;1.15;;;0.90;;
14945;SDS011;7567;50.916;6.900;2022-12-29T06:35:48;1.90;;;0.80;;
14945;SDS011;7567;50.916;6.900;2022-12-29T06:38:14;2.05;;;0.80;;
14945;SDS011;7567;50.916;6.900;2022-12-29T06:40:41;4.18;;;1.20;;
14945;SDS011;7567;50.916;6.900;2022-12-29T06:43:08;3.93;;;0.90;;
14945;SDS011;7567;50.916;6.900;2022-12-29T06:45:34;3.03;;;0.88;;
14945;SDS011;7567;50.916;6.900;2022-12-29T06:48:00;1.77;;;0.70;;
14945;SDS011;7567;50.916;6.900;2022-12-29T06:50:26;1.27;;;0.90;;
14945;SDS011;7567;50.916;6.900;2022-12-29T06:52:52;1.57;;;0.73;;
14945;SDS011;7567;50.916;6.900;2022-12-29T06:55:18;2.43;;;0.80;;
14945;SDS011;7567;50.916;6.900;2022-12-29T06:57:44;1.43;;;0.87;;
14945;SDS011;7567;50.916;6.900;2022-12-29T07:00:10;1.23;;;0.80;;
14945;SDS011;7567;50.916;6.900;2022-12-29T07:02:36;1.15;;;0.60;;
14945;SDS011;7567;50.916;6.900;2022-12-29T07:05:02;1.70;;;0.90;;
14945;SDS011;7567;50.916;6.900;2022-12-29T07:07:28;2.93;;;0.97;;
14945;SDS011;7567;50.916;6.900;2022-12-29T07:09:54;2.77;;;1.00;;
14945;SDS011;7567;50.916;6.900;2022-12-29T07:12:20;1.67;;;0.60;;
14945;SDS011;7567;50.916;6.900;2022-12-29T07:14:46;2.15;;;0.90;;
14945;SDS011;7567;50.916;6.900;2022-12-29T07:17:12;2.53;;;0.90;;
14945;SDS011;7567;50.916;6.900;2022-12-29T07:19:38;1.25;;;0.70;;
14945;SDS011;7567;50.916;6.900;2022-12-29T07:22:04;1.60;;;0.70;;
14945;SDS011;7567;50.916;6.900;2022-12-29T07:24:31;3.07;;;0.60;;
14945;SDS011;7567;50.916;6.900;2022-12-29T07:26:57;1.80;;;0.82;;
14945;SDS011;7567;50.916;6.900;2022-12-29T07:29:23;2.27;;;0.83;;
14945;SDS011;7567;50.916;6.900;2022-12-29T07:31:49;2.93;;;0.87;;
14945;SDS011;7567;50.916;6.900;2022-12-29T07:34:15;1.90;;;0.80;;
14945;SDS011;7567;50.916;6.900;2022-12-29T07:36:41;2.60;;;1.00;;
14945;SDS011;7567;50.916;6.900;2022-12-29T07:39:07;2.13;;;0.70;;
14945;SDS011;7567;50.916;6.900;2022-12-29T07:41:33;1.90;;;0.87;;
14945;SDS011;7567;50.916;6.900;2022-12-29T07:44:00;1.43;;;0.80;;
14945;SDS011;7567;50.916;6.900;2022-12-29T07:46:26;2.40;;;1.00;;
14945;SDS011;7567;50.916;6.900;2022-12-29T07:48:52;4.35;;;1.00;;
14945;SDS011;7567;50.916;6.900;2022-12-29T07:51:18;2.53;;;0.90;;
14945;SDS011;7567;50.916;6.900;2022-12-29T07:53:44;4.17;;;1.27;;
14945;SDS011;7567;50.916;6.900;2022-12-29T07:56:10;3.37;;;1.00;;
14945;SDS011;7567;50.916;6.900;2022-12-29T07:58:36;3.72;;;1.10;;
14945;SDS011;7567;50.916;6.900;2022-12-29T08:01:02;3.37;;;1.10;;
14945;SDS011;7567;50.916;6.900;2022-12-29T08:03:28;2.30;;;1.10;;
14945;SDS011;7567;50.916;6.900;2022-12-29T08:05:54;2.35;;;0.98;;
14945;SDS011;7567;50.916;6.900;2022-12-29T08:08:22;3.08;;;0.90;;
14945;SDS011;7567;50.916;6.900;2022-12-29T08:10:48;2.92;;;0.95;;
14945;SDS011;7567;50.916;6.900;2022-12-29T08:13:14;3.40;;;1.47;;
14945;SDS011;7567;50.916;6.900;2022-12-29T08:15:40;3.17;;;1.03;;
14945;SDS011;7567;50.916;6.900;2022-12-29T08:18:06;2.05;;;1.17;;
14945;SDS011;7567;50.916;6.900;2022-12-29T08:20:32;5.18;;;1.23;;
14945;SDS011;7567;50.916;6.900;2022-12-29T08:22:58;5.45;;;1.50;;
14945;SDS011;7567;50.916;6.900;2022-12-29T08:25:24;3.00;;;1.38;;
14945;SDS011;7567;50.916;6.900;2022-12-29T08:27:50;4.10;;;1.17;;
14945;SDS011;7567;50.916;6.900;2022-12-29T08:30:16;2.50;;;1.10;;
14945;SDS011;7567;50.916;6.900;2022-12-29T08:32:43;3.13;;;1.20;;
14945;SDS011;7567;50.916;6.900;2022-12-29T08:35:09;2.87;;;1.10;;
14945;SDS011;7567;50.916;6.900;2022-12-29T08:37:35;4.07;;;1.33;;
14945;SDS011;7567;50.916;6.900;2022-12-29T08:40:01;4.82;;;1.45;;
14945;SDS011;7567;50.916;6.900;2022-12-29T08:42:31;4.00;;;1.27;;
14945;SDS011;7567;50.916;6.900;2022-12-29T08:44:58;4.82;;;1.23;;
14945;SDS011;7567;50.916;6.900;2022-12-29T08:47:24;5.23;;;1.40;;
14945;SDS011;7567;50.916;6.900;2022-12-29T08:49:51;5.20;;;1.60;;
14945;SDS011;7567;50.916;6.900;2022-12-29T08:52:17;3.38;;;1.38;;
14945;SDS011;7567;50.916;6.900;2022-12-29T08:54:43;4.63;;;1.50;;
14945;SDS011;7567;50.916;6.900;2022-12-29T08:57:09;3.63;;;1.30;;
14945;SDS011;7567;50.916;6.900;2022-12-29T08:59:35;5.93;;;1.47;;
14945;SDS011;7567;50.916;6.900;2022-12-29T09:02:01;5.33;;;1.33;;
14945;SDS011;7567;50.916;6.900;2022-12-29T09:04:28;5.20;;;1.27;;
14945;SDS011;7567;50.916;6.900;2022-12-29T09:06:54;5.03;;;1.47;;
14945;SDS011;7567;50.916;6.900;2022-12-29T09:09:20;4.50;;;1.40;;
14945;SDS011;7567;50.916;6.900;2022-12-29T09:11:46;5.33;;;1.60;;
14945;SDS011;7567;50.916;6.900;2022-12-29T09:14:12;3.63;;;1.43;;
14945;SDS011;7567;50.916;6.900;2022-12-29T09:16:39;5.33;;;1.43;;
14945;SDS011;7567;50.916;6.900;2022-12-29T09:19:24;6.80;;;1.60;;
14945;SDS011;7567;50.916;6.900;2022-12-29T09:21:50;9.63;;;1.70;;
14945;SDS011;7567;50.916;6.900;2022-12-29T09:24:16;5.63;;;1.40;;
14945;SDS011;7567;50.916;6.900;2022-12-29T09:26:42;3.55;;;1.13;;
14945;SDS011;7567;50.916;6.900;2022-12-29T09:29:08;5.13;;;1.30;;
14945;SDS011;7567;50.916;6.900;2022-12-29T09:31:34;5.60;;;2.10;;
14945;SDS011;7567;50.916;6.900;2022-12-29T09:34:00;6.17;;;1.77;;
14945;SDS011;7567;50.916;6.900;2022-12-29T09:36:26;6.05;;;1.98;;
14945;SDS011;7567;50.916;6.900;2022-12-29T09:38:53;5.28;;;1.60;;
14945;SDS011;7567;50.916;6.900;2022-12-29T09:41:34;4.30;;;1.40;;
14945;SDS011;7567;50.916;6.900;2022-12-29T09:44:15;5.28;;;1.40;;
14945;SDS011;7567;50.916;6.900;2022-12-29T09:46:50;4.17;;;1.30;;
14945;SDS011;7567;50.916;6.900;2022-12-29T09:52:03;4.30;;;1.80;;
14945;SDS011;7567;50.916;6.900;2022-12-29T09:57:38;6.65;;;2.25;;
14945;SDS011;7567;50.916;6.900;2022-12-29T10:00:22;4.63;;;1.38;;
14945;SDS011;7567;50.916;6.900;2022-12-29T10:02:59;5.27;;;1.83;;
14945;SDS011;7567;50.916;6.900;2022-12-29T10:05:38;8.30;;;1.85;;
14945;SDS011;7567;50.916;6.900;2022-12-29T10:10:57;6.80;;;1.60;;
14945;SDS011;7567;50.916;6.900;2022-12-29T10:13:41;9.00;;;1.83;;
14945;SDS011;7567;50.916;6.900;2022-12-29T10:16:14;4.20;;;1.45;;
14945;SDS011;7567;50.916;6.900;2022-12-29T10:22:05;4.80;;;1.55;;
14945;SDS011;7567;50.916;6.900;2022-12-29T10:25:06;4.57;;;1.90;;
14945;SDS011;7567;50.916;6.900;2022-12-29T10:27:43;8.68;;;2.20;;
14945;SDS011;7567;50.916;6.900;2022-12-29T10:30:14;7.32;;;1.70;;
14945;SDS011;7567;50.916;6.900;2022-12-29T10:33:02;6.18;;;1.58;;
14945;SDS011;7567;50.916;6.900;2022-12-29T10:35:34;4.43;;;1.52;;
14945;SDS011;7567;50.916;6.900;2022-12-29T10:43:28;4.10;;;1.60;;
14945;SDS011;7567;50.916;6.900;2022-12-29T10:45:59;5.93;;;1.40;;
14945;SDS011;7567;50.916;6.900;2022-12-29T10:48:33;4.60;;;1.60;;
14945;SDS011;7567;50.916;6.900;2022-12-29T10:51:06;4.65;;;1.73;;
14945;SDS011;7567;50.916;6.900;2022-12-29T10:53:46;4.53;;;1.63;;
14945;SDS011;7567;50.916;6.900;2022-12-29T10:59:01;4.38;;;1.50;;
14945;SDS011;7567;50.916;6.900;2022-12-29T11:01:48;3.55;;;1.38;;
14945;SDS011;7567;50.916;6.900;2022-12-29T11:04:23;4.20;;;1.45;;
14945;SDS011;7567;50.916;6.900;2022-12-29T11:07:01;5.22;;;1.60;;
14945;SDS011;7567;50.916;6.900;2022-12-29T11:09:28;4.97;;;1.60;;
14945;SDS011;7567;50.916;6.900;2022-12-29T11:11:57;5.55;;;1.60;;
14945;SDS011;7567;50.916;6.900;2022-12-29T11:14:30;5.43;;;1.70;;
14945;SDS011;7567;50.916;6.900;2022-12-29T11:16:57;4.35;;;1.40;;
14945;SDS011;7567;50.916;6.900;2022-12-29T11:19:26;5.63;;;2.10;;
14945;SDS011;7567;50.916;6.900;2022-12-29T11:21:53;4.97;;;1.65;;
14945;SDS011;7567;50.916;6.900;2022-12-29T11:24:21;4.90;;;2.00;;
14945;SDS011;7567;50.916;6.900;2022-12-29T11:26:53;7.45;;;1.60;;
14945;SDS011;7567;50.916;6.900;2022-12-29T11:29:24;6.20;;;2.03;;
14945;SDS011;7567;50.916;6.900;2022-12-29T11:32:09;5.47;;;1.58;;
14945;SDS011;7567;50.916;6.900;2022-12-29T11:34:37;5.88;;;1.92;;
14945;SDS011;7567;50.916;6.900;2022-12-29T11:37:09;7.78;;;1.75;;
14945;SDS011;7567;50.916;6.900;2022-12-29T11:39:41;5.57;;;1.77;;
14945;SDS011;7567;50.916;6.900;2022-12-29T11:42:21;7.25;;;2.50;;
14945;SDS011;7567;50.916;6.900;2022-12-29T11:44:54;6.00;;;1.75;;
14945;SDS011;7567;50.916;6.900;2022-12-29T11:47:22;8.43;;;1.88;;
14945;SDS011;7567;50.916;6.900;2022-12-29T11:49:55;4.20;;;1.55;;
14945;SDS011;7567;50.916;6.900;2022-12-29T11:52:25;5.93;;;1.80;;
14945;SDS011;7567;50.916;6.900;2022-12-29T11:54:54;5.30;;;1.90;;
14945;SDS011;7567;50.916;6.900;2022-12-29T11:57:22;5.70;;;1.80;;
14945;SDS011;7567;50.916;6.900;2022-12-29T11:59:50;4.97;;;1.77;;
14945;SDS011;7567;50.916;6.900;2022-12-29T12:02:32;5.55;;;1.80;;
14945;SDS011;7567;50.916;6.900;2022-12-29T12:10:12;7.40;;;2.00;;
14945;SDS011;7567;50.916;6.900;2022-12-29T12:16:08;5.43;;;1.70;;
14945;SDS011;7567;50.916;6.900;2022-12-29T12:21:30;5.90;;;1.58;;
14945;SDS011;7567;50.916;6.900;2022-12-29T12:24:10;5.90;;;1.50;;
14945;SDS011;7567;50.916;6.900;2022-12-29T12:32:45;7.50;;;2.17;;
14945;SDS011;7567;50.916;6.900;2022-12-29T12:35:31;6.82;;;2.00;;
14945;SDS011;7567;50.916;6.900;2022-12-29T12:41:00;5.82;;;1.70;;
14945;SDS011;7567;50.916;6.900;2022-12-29T12:43:46;7.18;;;2.00;;
14945;SDS011;7567;50.916;6.900;2022-12-29T12:52:04;4.37;;;1.53;;
14945;SDS011;7567;50.916;6.900;2022-12-29T13:02:27;6.23;;;1.77;;
14945;SDS011;7567;50.916;6.900;2022-12-29T13:10:28;11.73;;;2.00;;
14945;SDS011;7567;50.916;6.900;2022-12-29T13:23:48;4.57;;;1.93;;
14945;SDS011;7567;50.916;6.900;2022-12-29T13:26:42;5.67;;;2.00;;
14945;SDS011;7567;50.916;6.900;2022-12-29T13:38:15;7.53;;;1.85;;
14945;SDS011;7567;50.916;6.900;2022-12-29T13:41:07;5.20;;;1.60;;
14945;SDS011;7567;50.916;6.900;2022-12-29T13:43:37;5.93;;;2.33;;
14945;SDS011;7567;50.916;6.900;2022-12-29T13:46:12;6.50;;;2.13;;
14945;SDS011;7567;50.916;6.900;2022-12-29T13:48:52;4.57;;;1.53;;
14945;SDS011;7567;50.916;6.900;2022-12-29T13:51:49;11.57;;;2.30;;
14945;SDS011;7567;50.916;6.900;2022-12-29T13:54:26;6.30;;;1.87;;
14945;SDS011;7567;50.916;6.900;2022-12-29T14:05:31;3.20;;;1.87;;
14945;SDS011;7567;50.916;6.900;2022-12-29T14:08:01;5.18;;;1.77;;
14945;SDS011;7567;50.916;6.900;2022-12-29T14:10:45;6.10;;;1.77;;
14945;SDS011;7567;50.916;6.900;2022-12-29T14:13:16;6.47;;;1.60;;
14945;SDS011;7567;50.916;6.900;2022-12-29T14:15:46;6.25;;;1.52;;
14945;SDS011;7567;50.916;6.900;2022-12-29T14:18:18;5.47;;;1.83;;
14945;SDS011;7567;50.916;6.900;2022-12-29T14:20:51;4.85;;;1.65;;
14945;SDS011;7567;50.916;6.900;2022-12-29T14:23:35;4.13;;;1.48;;
14945;SDS011;7567;50.916;6.900;2022-12-29T14:26:10;5.73;;;1.87;;
14945;SDS011;7567;50.916;6.900;2022-12-29T14:28:39;4.13;;;2.00;;
14945;SDS011;7567;50.916;6.900;2022-12-29T14:33:39;6.30;;;1.65;;
14945;SDS011;7567;50.916;6.900;2022-12-29T14:36:19;7.27;;;1.77;;
14945;SDS011;7567;50.916;6.900;2022-12-29T14:38:46;4.95;;;1.50;;
14945;SDS011;7567;50.916;6.900;2022-12-29T14:49:20;9.87;;;2.40;;
14945;SDS011;7567;50.916;6.900;2022-12-29T14:51:50;5.93;;;2.03;;
14945;SDS011;7567;50.916;6.900;2022-12-29T14:57:04;5.43;;;1.57;;
14945;SDS011;7567;50.916;6.900;2022-12-29T14:59:33;5.00;;;1.80;;
14945;SDS011;7567;50.916;6.900;2022-12-29T15:02:01;6.70;;;1.80;;
14945;SDS011;7567;50.916;6.900;2022-12-29T15:04:38;4.82;;;1.70;;
14945;SDS011;7567;50.916;6.900;2022-12-29T15:07:07;5.83;;;2.10;;
14945;SDS011;7567;50.916;6.900;2022-12-29T15:09:45;7.27;;;2.10;;
14945;SDS011;7567;50.916;6.900;2022-12-29T15:14:52;5.97;;;2.20;;
14945;SDS011;7567;50.916;6.900;2022-12-29T15:19:53;7.77;;;2.10;;
14945;SDS011;7567;50.916;6.900;2022-12-29T15:22:21;7.93;;;1.80;;
14945;SDS011;7567;50.916;6.900;2022-12-29T15:24:49;3.23;;;1.57;;
14945;SDS011;7567;50.916;6.900;2022-12-29T15:27:21;6.40;;;2.10;;
14945;SDS011;7567;50.916;6.900;2022-12-29T15:29:57;6.70;;;1.63;;
14945;SDS011;7567;50.916;6.900;2022-12-29T15:32:27;9.77;;;2.07;;
14945;SDS011;7567;50.916;6.900;2022-12-29T15:34:55;4.80;;;1.80;;
14945;SDS011;7567;50.916;6.900;2022-12-29T15:37:34;6.40;;;2.07;;
14945;SDS011;7567;50.916;6.900;2022-12-29T15:40:02;5.00;;;1.70;;
14945;SDS011;7567;50.916;6.900;2022-12-29T15:45:33;8.03;;;2.07;;
14945;SDS011;7567;50.916;6.900;2022-12-29T15:48:01;7.83;;;1.97;;
14945;SDS011;7567;50.916;6.900;2022-12-29T15:50:31;5.53;;;1.70;;
14945;SDS011;7567;50.916;6.900;2022-12-29T15:52:59;7.00;;;1.97;;
14945;SDS011;7567;50.916;6.900;2022-12-29T15:55:28;4.40;;;2.00;;
14945;SDS011;7567;50.916;6.900;2022-12-29T15:58:01;8.90;;;2.30;;
14945;SDS011;7567;50.916;6.900;2022-12-29T16:00:33;8.83;;;2.23;;
14945;SDS011;7567;50.916;6.900;2022-12-29T16:03:03;7.83;;;2.00;;
14945;SDS011;7567;50.916;6.900;2022-12-29T16:05:35;7.50;;;1.57;;
14945;SDS011;7567;50.916;6.900;2022-12-29T16:08:03;9.77;;;2.60;;
14945;SDS011;7567;50.916;6.900;2022-12-29T16:10:46;7.60;;;2.00;;
14945;SDS011;7567;50.916;6.900;2022-12-29T16:13:19;10.03;;;2.97;;
14945;SDS011;7567;50.916;6.900;2022-12-29T16:16:07;11.50;;;2.93;;
14945;SDS011;7567;50.916;6.900;2022-12-29T16:18:39;11.27;;;3.03;;
14945;SDS011;7567;50.916;6.900;2022-12-29T16:21:06;9.90;;;3.37;;
14945;SDS011;7567;50.916;6.900;2022-12-29T16:23:46;10.17;;;2.90;;
14945;SDS011;7567;50.916;6.900;2022-12-29T16:26:18;8.27;;;2.53;;
14945;SDS011;7567;50.916;6.900;2022-12-29T16:28:50;7.67;;;2.80;;
14945;SDS011;7567;50.916;6.900;2022-12-29T16:33:56;7.77;;;2.07;;
14945;SDS011;7567;50.916;6.900;2022-12-29T16:36:33;7.50;;;2.60;;
14945;SDS011;7567;50.916;6.900;2022-12-29T16:39:27;6.63;;;2.27;;
14945;SDS011;7567;50.916;6.900;2022-12-29T16:45:09;6.67;;;2.20;;
14945;SDS011;7567;50.916;6.900;2022-12-29T16:48:10;9.27;;;2.17;;
14945;SDS011;7567;50.916;6.900;2022-12-29T16:50:48;8.03;;;2.43;;
14945;SDS011;7567;50.916;6.900;2022-12-29T16:56:04;10.37;;;3.07;;
14945;SDS011;7567;50.916;6.900;2022-12-29T16:58:40;7.93;;;2.73;;
14945;SDS011;7567;50.916;6.900;2022-12-29T17:01:06;8.27;;;2.30;;
14945;SDS011;7567;50.916;6.900;2022-12-29T17:03:41;9.00;;;2.57;;
14945;SDS011;7567;50.916;6.900;2022-12-29T17:06:14;8.07;;;2.70;;
14945;SDS011;7567;50.916;6.900;2022-12-29T17:08:42;7.67;;;2.40;;
14945;SDS011;7567;50.916;6.900;2022-12-29T17:11:22;8.70;;;2.47;;
14945;SDS011;7567;50.916;6.900;2022-12-29T17:16:48;12.23;;;2.87;;
14945;SDS011;7567;50.916;6.900;2022-12-29T17:19:18;10.47;;;2.57;;
14945;SDS011;7567;50.916;6.900;2022-12-29T17:21:49;8.43;;;2.30;;
14945;SDS011;7567;50.916;6.900;2022-12-29T17:24:18;9.27;;;2.67;;
14945;SDS011;7567;50.916;6.900;2022-12-29T17:26:45;8.80;;;2.47;;
14945;SDS011;7567;50.916;6.900;2022-12-29T17:29:18;10.33;;;2.50;;
14945;SDS011;7567;50.916;6.900;2022-12-29T17:31:46;7.77;;;2.20;;
14945;SDS011;7567;50.916;6.900;2022-12-29T17:34:12;7.00;;;2.47;;
14945;SDS011;7567;50.916;6.900;2022-12-29T17:36:39;10.60;;;3.00;;
14945;SDS011;7567;50.916;6.900;2022-12-29T17:39:05;9.80;;;2.63;;
14945;SDS011;7567;50.916;6.900;2022-12-29T17:41:32;7.13;;;2.07;;
14945;SDS011;7567;50.916;6.900;2022-12-29T17:44:00;11.33;;;2.93;;
14945;SDS011;7567;50.916;6.900;2022-12-29T17:46:27;9.77;;;3.07;;
14945;SDS011;7567;50.916;6.900;2022-12-29T17:48:53;8.93;;;2.33;;
14945;SDS011;7567;50.916;6.900;2022-12-29T17:51:19;9.20;;;3.03;;